createdAt,value
2016-06-15T00:00:51.518Z,20.7
2016-06-15T00:01:51.366Z,20.65
2016-06-15T00:02:51.494Z,20.44
2016-06-15T00:03:51.481Z,20.59
2016-06-15T00:04:51.875Z,20.59
2016-06-15T00:05:51.456Z,20.44
2016-06-15T00:06:51.459Z,20.37
2016-06-15T00:07:51.431Z,20.47
2016-06-15T00:08:51.403Z,20.5
2016-06-15T00:09:51.421Z,20.39
2016-06-15T00:10:51.410Z,20.36
2016-06-15T00:11:51.365Z,20.4
2016-06-15T00:12:51.353Z,20.44
2016-06-15T00:13:51.339Z,20.43
2016-06-15T00:14:51.328Z,20.55
2016-06-15T00:15:51.300Z,20.43
2016-06-15T00:16:51.287Z,20.39
2016-06-15T00:17:51.306Z,20.5
2016-06-15T00:18:51.277Z,20.75
2016-06-15T00:19:51.968Z,20.78
2016-06-15T00:20:51.252Z,20.8
2016-06-15T00:21:51.256Z,20.56
2016-06-15T00:22:51.196Z,20.55
2016-06-15T00:23:51.200Z,20.63
2016-06-15T00:24:51.170Z,20.65
2016-06-15T00:25:51.018Z,20.58
2016-06-15T00:26:51.161Z,20.58
2016-06-15T00:27:51.149Z,20.48
2016-06-15T00:28:51.120Z,20.36
2016-06-15T00:29:51.108Z,20.36
2016-06-15T00:30:51.110Z,20.29
2016-06-15T00:31:51.083Z,20.22
2016-06-15T00:32:51.070Z,20.22
2016-06-15T00:33:51.058Z,20.34
2016-06-15T00:34:50.889Z,20.25
2016-06-15T00:35:51.032Z,20.39
2016-06-15T00:36:51.036Z,20.39
2016-06-15T00:37:51.007Z,20.29
2016-06-15T00:38:50.979Z,20.16
2016-06-15T00:39:50.967Z,20.39
2016-06-15T00:40:50.970Z,20.4
2016-06-15T00:41:50.941Z,20.6
2016-06-15T00:42:50.929Z,20.59
2016-06-15T00:43:50.948Z,20.47
2016-06-15T00:44:50.904Z,20.44
2016-06-15T00:45:50.876Z,20.74
2016-06-15T00:46:50.848Z,20.55
2016-06-15T00:47:50.851Z,20.41
2016-06-15T00:48:50.822Z,20.28
2016-06-15T00:49:51.232Z,20.39
2016-06-15T00:50:50.813Z,20.39
2016-06-15T00:51:50.786Z,20.4
2016-06-15T00:52:50.803Z,20.11
2016-06-15T00:53:50.760Z,20.24
2016-06-15T00:54:50.748Z,20.07
2016-06-15T00:55:50.735Z,20.03
2016-06-15T00:56:50.722Z,20.02
2016-06-15T00:57:50.710Z,20.29
2016-06-15T00:58:50.556Z,20.11
2016-06-15T00:59:50.736Z,19.94
2016-06-15T01:00:50.760Z,20.09
2016-06-15T01:01:50.784Z,20.09
2016-06-15T01:02:50.823Z,20.14
2016-06-15T01:03:50.812Z,20.29
2016-06-15T01:04:50.657Z,20.24
2016-06-15T01:05:50.844Z,20.06
2016-06-15T01:06:50.798Z,19.96
2016-06-15T01:07:50.798Z,20.03
2016-06-15T01:08:50.792Z,20.04
2016-06-15T01:09:50.785Z,19.95
2016-06-15T01:10:50.776Z,19.7
2016-06-15T01:11:50.770Z,19.77
2016-06-15T01:12:50.761Z,19.86
2016-06-15T01:13:50.955Z,20.09
2016-06-15T01:14:50.834Z,20.07
2016-06-15T01:15:50.792Z,19.79
2016-06-15T01:16:50.703Z,19.92
2016-06-15T01:17:50.691Z,20
2016-06-15T01:18:50.696Z,19.69
2016-06-15T01:19:51.215Z,19.85
2016-06-15T01:20:51.016Z,19.84
2016-06-15T01:21:50.848Z,19.66
2016-06-15T01:22:50.711Z,19.64
2016-06-15T01:23:50.918Z,19.41
2016-06-15T01:24:50.592Z,19.64
2016-06-15T01:25:50.580Z,19.79
2016-06-15T01:26:50.567Z,19.79
2016-06-15T01:27:50.540Z,19.81
2016-06-15T01:28:50.526Z,19.7
2016-06-15T01:29:50.515Z,19.54
2016-06-15T01:30:50.501Z,19.56
2016-06-15T01:31:50.489Z,19.76
2016-06-15T01:32:50.460Z,19.74
2016-06-15T01:33:50.464Z,19.85
2016-06-15T01:34:50.451Z,19.66
2016-06-15T01:35:51.111Z,19.74
2016-06-15T01:36:50.410Z,19.66
2016-06-15T01:37:50.414Z,19.73
2016-06-15T01:38:50.385Z,19.7
2016-06-15T01:39:50.373Z,19.59
2016-06-15T01:40:50.360Z,19.51
2016-06-15T01:41:50.348Z,19.63
2016-06-15T01:42:50.335Z,19.49
2016-06-15T01:43:50.307Z,19.39
2016-06-15T01:44:50.295Z,19.54
2016-06-15T01:45:50.281Z,19.52
2016-06-15T01:46:50.269Z,19.62
2016-06-15T01:47:50.256Z,19.76
2016-06-15T01:48:50.229Z,19.81
2016-06-15T01:49:50.216Z,19.79
2016-06-15T01:50:50.204Z,19.79
2016-06-15T01:51:50.191Z,19.48
2016-06-15T01:52:50.038Z,19.49
2016-06-15T01:53:50.166Z,19.22
2016-06-15T01:54:50.153Z,19.41
2016-06-15T01:55:50.141Z,19.44
2016-06-15T01:56:50.128Z,19.39
2016-06-15T01:57:50.100Z,19.36
2016-06-15T01:58:50.087Z,19.3
2016-06-15T01:59:50.075Z,19.49
2016-06-15T02:00:50.047Z,19.48
2016-06-15T02:01:50.050Z,19.37
2016-06-15T02:02:50.038Z,19.44
2016-06-15T02:03:50.041Z,19.39
2016-06-15T02:04:49.997Z,19.41
2016-06-15T02:05:50.000Z,19.45
2016-06-15T02:06:49.987Z,19.37
2016-06-15T02:07:49.959Z,19.45
2016-06-15T02:08:49.962Z,19.26
2016-06-15T02:09:49.934Z,19.09
2016-06-15T02:10:49.921Z,19.21
2016-06-15T02:11:49.737Z,19.16
2016-06-15T02:12:49.725Z,19.19
2016-06-15T02:13:49.853Z,19.33
2016-06-15T02:14:49.856Z,19.27
2016-06-15T02:15:49.828Z,19.3
2016-06-15T02:16:49.831Z,19.19
2016-06-15T02:17:49.802Z,19.33
2016-06-15T02:18:49.805Z,19.22
2016-06-15T02:19:49.777Z,19.24
2016-06-15T02:20:49.764Z,19.19
2016-06-15T02:21:49.596Z,19.09
2016-06-15T02:22:49.740Z,19.14
2016-06-15T02:23:49.742Z,19.22
2016-06-15T02:24:49.715Z,19.15
2016-06-15T02:25:49.701Z,19.09
2016-06-15T02:26:49.689Z,19.14
2016-06-15T02:27:49.660Z,19.21
2016-06-15T02:28:49.633Z,19.26
2016-06-15T02:29:49.620Z,19.37
2016-06-15T02:30:49.624Z,19.54
2016-06-15T02:31:49.594Z,19.56
2016-06-15T02:32:49.598Z,19.63
2016-06-15T02:33:49.570Z,19.76
2016-06-15T02:34:49.557Z,19.71
2016-06-15T02:35:49.560Z,19.82
2016-06-15T02:36:49.532Z,19.67
2016-06-15T02:37:49.504Z,19.55
2016-06-15T02:38:49.351Z,19.39
2016-06-15T02:39:49.494Z,19.47
2016-06-15T02:40:49.466Z,19.3
2016-06-15T02:41:49.298Z,19.33
2016-06-15T02:42:49.441Z,19.47
2016-06-15T02:43:49.445Z,19.37
2016-06-15T02:44:49.432Z,19.33
2016-06-15T02:45:49.388Z,19.4
2016-06-15T02:46:49.376Z,19.3
2016-06-15T02:47:49.363Z,18.95
2016-06-15T02:48:49.350Z,18.89
2016-06-15T02:49:49.338Z,19.19
2016-06-15T02:50:50.701Z,19.27
2016-06-15T02:51:49.313Z,19.26
2016-06-15T02:52:49.285Z,19.24
2016-06-15T02:53:49.256Z,19.39
2016-06-15T02:54:49.260Z,19.44
2016-06-15T02:55:49.247Z,19.49
2016-06-15T02:56:49.219Z,19.44
2016-06-15T02:57:49.065Z,19.24
2016-06-15T02:58:49.194Z,19.26
2016-06-15T02:59:49.196Z,19.3
2016-06-15T03:00:49.169Z,19.3
2016-06-15T03:01:49.172Z,19.21
2016-06-15T03:02:49.144Z,19.24
2016-06-15T03:03:49.131Z,19.29
2016-06-15T03:04:49.118Z,19.21
2016-06-15T03:05:49.106Z,19.21
2016-06-15T03:06:49.078Z,19.26
2016-06-15T03:07:49.066Z,19.3
2016-06-15T03:08:49.053Z,19.41
2016-06-15T03:09:49.025Z,19.19
2016-06-15T03:10:48.855Z,19.22
2016-06-15T03:11:49.000Z,19.27
2016-06-15T03:12:49.003Z,19.3
2016-06-15T03:13:48.974Z,19.26
2016-06-15T03:14:48.977Z,19.29
2016-06-15T03:15:48.949Z,19.44
2016-06-15T03:16:48.921Z,19.26
2016-06-15T03:17:48.909Z,19.39
2016-06-15T03:18:48.911Z,19.36
2016-06-15T03:19:48.899Z,19.21
2016-06-15T03:20:49.089Z,19.27
2016-06-15T03:21:48.858Z,19.45
2016-06-15T03:22:48.845Z,19.36
2016-06-15T03:23:48.662Z,19.12
2016-06-15T03:24:48.804Z,18.95
2016-06-15T03:25:48.808Z,19.09
2016-06-15T03:26:48.780Z,19.11
2016-06-15T03:27:48.783Z,19.19
2016-06-15T03:28:48.755Z,19.18
2016-06-15T03:29:48.742Z,19.26
2016-06-15T03:30:48.729Z,19.24
2016-06-15T03:31:48.701Z,19.34
2016-06-15T03:32:48.689Z,19.4
2016-06-15T03:33:48.660Z,19.36
2016-06-15T03:34:48.664Z,19.39
2016-06-15T03:35:48.869Z,19.12
2016-06-15T03:36:48.483Z,18.98
2016-06-15T03:37:48.611Z,19.14
2016-06-15T03:38:48.598Z,19.08
2016-06-15T03:39:48.601Z,19.09
2016-06-15T03:40:48.573Z,19.09
2016-06-15T03:41:48.560Z,19.12
2016-06-15T03:42:48.548Z,19.11
2016-06-15T03:43:48.519Z,19.11
2016-06-15T03:44:48.507Z,19.14
2016-06-15T03:45:48.495Z,19.24
2016-06-15T03:46:48.482Z,19.3
2016-06-15T03:47:48.470Z,19.4
2016-06-15T03:48:48.456Z,19.24
2016-06-15T03:49:48.445Z,19.21
2016-06-15T03:50:48.978Z,19.22
2016-06-15T03:51:48.419Z,19.09
2016-06-15T03:52:48.250Z,19.11
2016-06-15T03:53:48.379Z,19.26
2016-06-15T03:54:48.365Z,19.4
2016-06-15T03:55:48.353Z,19.19
2016-06-15T03:56:48.341Z,19.22
2016-06-15T03:57:48.328Z,19.08
2016-06-15T03:58:48.316Z,19.04
2016-06-15T03:59:48.287Z,19
2016-06-15T04:00:48.150Z,19.07
2016-06-15T04:01:48.247Z,19.11
2016-06-15T04:02:48.234Z,19.15
2016-06-15T04:03:48.238Z,19.26
2016-06-15T04:04:48.224Z,19.11
2016-06-15T04:05:48.244Z,19.16
2016-06-15T04:06:48.184Z,19.18
2016-06-15T04:07:48.172Z,19.12
2016-06-15T04:08:48.143Z,19.21
2016-06-15T04:09:48.146Z,19.22
2016-06-15T04:10:48.118Z,19.19
2016-06-15T04:11:48.105Z,19.22
2016-06-15T04:12:48.093Z,19.3
2016-06-15T04:13:48.080Z,19.24
2016-06-15T04:14:48.068Z,19.26
2016-06-15T04:15:48.040Z,19.26
2016-06-15T04:16:48.027Z,19.22
2016-06-15T04:17:48.015Z,19.08
2016-06-15T04:18:48.018Z,19.18
2016-06-15T04:19:47.990Z,19.27
2016-06-15T04:20:48.040Z,19.36
2016-06-15T04:21:47.949Z,19.48
2016-06-15T04:22:47.952Z,19.47
2016-06-15T04:23:47.939Z,19.44
2016-06-15T04:24:47.912Z,19.47
2016-06-15T04:25:47.898Z,19.55
2016-06-15T04:26:47.887Z,19.54
2016-06-15T04:27:47.889Z,19.45
2016-06-15T04:28:47.862Z,19.47
2016-06-15T04:29:47.849Z,19.54
2016-06-15T04:30:47.821Z,19.52
2016-06-15T04:31:47.808Z,19.48
2016-06-15T04:32:47.795Z,19.27
2016-06-15T04:33:47.798Z,19.31
2016-06-15T04:34:47.770Z,19.33
2016-06-15T04:35:48.258Z,19.37
2016-06-15T04:36:47.745Z,19.29
2016-06-15T04:37:47.732Z,19.22
2016-06-15T04:38:47.704Z,19.34
2016-06-15T04:39:47.676Z,19.45
2016-06-15T04:40:47.524Z,19.36
2016-06-15T04:41:47.666Z,19.55
2016-06-15T04:42:47.638Z,19.51
2016-06-15T04:43:47.625Z,19.36
2016-06-15T04:44:47.613Z,19.41
2016-06-15T04:45:47.616Z,19.48
2016-06-15T04:46:47.588Z,19.49
2016-06-15T04:47:47.575Z,19.52
2016-06-15T04:48:47.563Z,19.44
2016-06-15T04:49:47.551Z,19.31
2016-06-15T04:50:47.522Z,19.27
2016-06-15T04:51:47.353Z,19.4
2016-06-15T04:52:47.497Z,19.47
2016-06-15T04:53:47.484Z,19.54
2016-06-15T04:54:47.472Z,19.4
2016-06-15T04:55:47.303Z,19.33
2016-06-15T04:56:47.447Z,19.41
2016-06-15T04:57:47.435Z,19.56
2016-06-15T04:58:47.421Z,19.49
2016-06-15T04:59:47.394Z,19.44
2016-06-15T05:00:47.380Z,19.52
2016-06-15T05:01:47.213Z,19.54
2016-06-15T05:02:47.341Z,19.66
2016-06-15T05:03:47.328Z,19.74
2016-06-15T05:04:47.331Z,19.49
2016-06-15T05:05:47.537Z,19.55
2016-06-15T05:06:47.368Z,19.45
2016-06-15T05:07:47.277Z,19.19
2016-06-15T05:08:47.250Z,19.11
2016-06-15T05:09:47.252Z,19.18
2016-06-15T05:10:47.241Z,19.18
2016-06-15T05:11:47.227Z,19.21
2016-06-15T05:12:47.215Z,19.27
2016-06-15T05:13:47.187Z,19.24
2016-06-15T05:14:47.190Z,19.22
2016-06-15T05:15:47.162Z,19.29
2016-06-15T05:16:47.149Z,19.31
2016-06-15T05:17:47.137Z,19.37
2016-06-15T05:18:47.108Z,19.27
2016-06-15T05:19:47.097Z,19.41
2016-06-15T05:20:47.099Z,19.49
2016-06-15T05:21:47.087Z,19.33
2016-06-15T05:22:47.042Z,19.34
2016-06-15T05:23:46.890Z,19.34
2016-06-15T05:24:47.048Z,19.45
2016-06-15T05:25:47.005Z,19.52
2016-06-15T05:26:46.992Z,19.54
2016-06-15T05:27:46.980Z,19.64
2016-06-15T05:28:46.811Z,19.64
2016-06-15T05:29:46.955Z,19.66
2016-06-15T05:30:46.942Z,19.69
2016-06-15T05:31:46.914Z,19.77
2016-06-15T05:32:46.901Z,19.71
2016-06-15T05:33:46.889Z,19.63
2016-06-15T05:34:46.876Z,19.73
2016-06-15T05:35:46.864Z,19.69
2016-06-15T05:36:47.038Z,19.73
2016-06-15T05:37:46.838Z,19.67
2016-06-15T05:38:46.810Z,19.63
2016-06-15T05:39:46.797Z,19.34
2016-06-15T05:40:46.785Z,19.45
2016-06-15T05:41:46.773Z,19.4
2016-06-15T05:42:46.760Z,19.54
2016-06-15T05:43:46.778Z,19.77
2016-06-15T05:44:46.735Z,19.71
2016-06-15T05:45:46.738Z,19.64
2016-06-15T05:46:46.711Z,19.55
2016-06-15T05:47:46.682Z,19.51
2016-06-15T05:48:46.670Z,19.4
2016-06-15T05:49:46.656Z,19.66
2016-06-15T05:50:46.659Z,19.7
2016-06-15T05:51:47.037Z,19.71
2016-06-15T05:52:46.604Z,19.77
2016-06-15T05:53:46.590Z,19.66
2016-06-15T05:54:46.563Z,19.56
2016-06-15T05:55:46.409Z,19.64
2016-06-15T05:56:46.538Z,19.69
2016-06-15T05:57:46.525Z,19.74
2016-06-15T05:58:46.528Z,19.73
2016-06-15T05:59:46.359Z,19.54
2016-06-15T06:00:46.503Z,19.52
2016-06-15T06:01:46.490Z,19.54
2016-06-15T06:02:46.463Z,19.52
2016-06-15T06:03:46.449Z,19.52
2016-06-15T06:04:46.438Z,19.36
2016-06-15T06:05:46.409Z,19.44
2016-06-15T06:06:47.115Z,19.44
2016-06-15T06:07:46.400Z,19.44
2016-06-15T06:08:46.372Z,19.36
2016-06-15T06:09:46.358Z,19.41
2016-06-15T06:10:46.346Z,19.44
2016-06-15T06:11:46.334Z,19.34
2016-06-15T06:12:46.149Z,19.02
2016-06-15T06:13:46.294Z,18.88
2016-06-15T06:14:46.280Z,19.09
2016-06-15T06:15:46.269Z,18.96
2016-06-15T06:16:46.255Z,18.78
2016-06-15T06:17:46.103Z,18.81
2016-06-15T06:18:46.230Z,18.86
2016-06-15T06:19:46.218Z,18.96
2016-06-15T06:20:46.190Z,18.9
2016-06-15T06:21:46.396Z,18.84
2016-06-15T06:22:46.165Z,18.74
2016-06-15T06:23:46.152Z,18.81
2016-06-15T06:24:46.139Z,18.81
2016-06-15T06:25:46.127Z,18.74
2016-06-15T06:26:46.099Z,18.78
2016-06-15T06:27:46.102Z,18.77
2016-06-15T06:28:46.058Z,18.68
2016-06-15T06:29:46.062Z,18.84
2016-06-15T06:30:46.048Z,18.93
2016-06-15T06:31:46.036Z,18.96
2016-06-15T06:32:46.007Z,18.89
2016-06-15T06:33:45.996Z,18.88
2016-06-15T06:34:45.983Z,19.02
2016-06-15T06:35:45.970Z,19.08
2016-06-15T06:36:45.958Z,19.04
2016-06-15T06:37:45.944Z,19
2016-06-15T06:38:45.932Z,18.98
2016-06-15T06:39:45.920Z,19.19
2016-06-15T06:40:45.798Z,19.15
2016-06-15T06:41:45.863Z,19.27
2016-06-15T06:42:45.929Z,19.4
2016-06-15T06:43:46.588Z,19.36
2016-06-15T06:44:46.279Z,19.44
2016-06-15T06:45:45.814Z,19.51
2016-06-15T06:46:45.816Z,19.26
2016-06-15T06:47:45.804Z,19.29
2016-06-15T06:48:45.619Z,19.33
2016-06-15T06:49:45.748Z,19.34
2016-06-15T06:50:45.735Z,19.31
2016-06-15T06:51:46.019Z,19.27
2016-06-15T06:52:45.710Z,19.36
2016-06-15T06:53:45.697Z,19.27
2016-06-15T06:54:45.685Z,19.19
2016-06-15T06:55:45.657Z,19.29
2016-06-15T06:56:45.659Z,19.27
2016-06-15T06:57:45.632Z,19.31
2016-06-15T06:58:45.665Z,19.3
2016-06-15T06:59:45.622Z,19.27
2016-06-15T07:00:45.594Z,19.31
2016-06-15T07:01:45.582Z,19.27
2016-06-15T07:02:45.569Z,19.3
2016-06-15T07:03:45.556Z,19.26
2016-06-15T07:04:45.528Z,19.24
2016-06-15T07:05:45.531Z,19.21
2016-06-15T07:06:46.128Z,19.37
2016-06-15T07:07:45.490Z,19.44
2016-06-15T07:08:45.478Z,19.33
2016-06-15T07:09:45.465Z,19.47
2016-06-15T07:10:45.452Z,19.31
2016-06-15T07:11:45.441Z,19.36
2016-06-15T07:12:45.411Z,19.41
2016-06-15T07:13:45.400Z,19.47
2016-06-15T07:14:45.386Z,19.59
2016-06-15T07:15:45.375Z,19.71
2016-06-15T07:16:45.362Z,19.73
2016-06-15T07:17:45.349Z,19.71
2016-06-15T07:18:45.337Z,19.64
2016-06-15T07:19:45.308Z,19.51
2016-06-15T07:20:45.280Z,19.49
2016-06-15T07:21:45.706Z,19.4
2016-06-15T07:22:45.255Z,19.54
2016-06-15T07:23:45.102Z,19.77
2016-06-15T07:24:45.230Z,19.49
2016-06-15T07:25:45.218Z,19.66
2016-06-15T07:26:45.204Z,19.88
2016-06-15T07:27:45.208Z,20
2016-06-15T07:28:45.196Z,19.85
2016-06-15T07:29:45.011Z,20
2016-06-15T07:30:45.139Z,20.07
2016-06-15T07:31:45.127Z,19.63
2016-06-15T07:32:45.145Z,19.67
2016-06-15T07:33:45.117Z,19.55
2016-06-15T07:34:45.104Z,19.54
2016-06-15T07:35:45.498Z,19.66
2016-06-15T07:36:45.064Z,19.63
2016-06-15T07:37:45.051Z,19.64
2016-06-15T07:38:45.023Z,19.54
2016-06-15T07:39:45.026Z,19.58
2016-06-15T07:40:45.608Z,19.54
2016-06-15T07:41:44.986Z,19.55
2016-06-15T07:42:44.988Z,19.49
2016-06-15T07:43:44.961Z,19.33
2016-06-15T07:44:44.948Z,19.27
2016-06-15T07:45:44.935Z,19.26
2016-06-15T07:46:44.923Z,19.31
2016-06-15T07:47:44.910Z,19.54
2016-06-15T07:48:44.897Z,19.48
2016-06-15T07:49:44.572Z,19.66
2016-06-15T07:50:44.872Z,19.81
2016-06-15T07:51:45.313Z,19.74
2016-06-15T07:52:44.832Z,19.84
2016-06-15T07:53:44.819Z,19.73
2016-06-15T07:54:44.806Z,19.76
2016-06-15T07:55:44.779Z,19.88
2016-06-15T07:56:44.782Z,19.84
2016-06-15T07:57:44.769Z,19.66
2016-06-15T07:58:44.740Z,19.62
2016-06-15T07:59:44.572Z,19.74
2016-06-15T08:00:44.716Z,19.86
2016-06-15T08:01:44.703Z,19.64
2016-06-15T08:02:44.675Z,19.82
2016-06-15T08:03:44.662Z,19.64
2016-06-15T08:04:44.665Z,19.67
2016-06-15T08:05:44.653Z,19.85
2016-06-15T08:06:45.047Z,19.71
2016-06-15T08:07:44.627Z,19.71
2016-06-15T08:08:44.584Z,19.77
2016-06-15T08:09:44.572Z,20.11
2016-06-15T08:10:45.277Z,20
2016-06-15T08:11:44.562Z,19.92
2016-06-15T08:12:44.549Z,19.84
2016-06-15T08:13:44.537Z,19.86
2016-06-15T08:14:44.509Z,19.77
2016-06-15T08:15:45.637Z,19.91
2016-06-15T08:16:44.516Z,20.02
2016-06-15T08:17:44.455Z,19.91
2016-06-15T08:18:44.458Z,19.92
2016-06-15T08:19:44.430Z,19.94
2016-06-15T08:20:50.339Z,19.76
2016-06-15T08:21:46.437Z,19.81
2016-06-15T08:22:44.251Z,20.04
2016-06-15T08:23:46.584Z,20.19
2016-06-15T08:24:44.368Z,19.86
2016-06-15T08:25:44.355Z,19.96
2016-06-15T08:26:44.327Z,20.09
2016-06-15T08:27:44.330Z,20.04
2016-06-15T08:28:44.161Z,20.11
2016-06-15T08:29:44.148Z,20.1
2016-06-15T08:30:46.417Z,20.29
2016-06-15T08:31:44.248Z,20.13
2016-06-15T08:32:44.252Z,20.19
2016-06-15T08:33:44.239Z,19.99
2016-06-15T08:34:44.211Z,19.95
2016-06-15T08:35:44.230Z,20.09
2016-06-15T08:36:44.061Z,19.94
2016-06-15T08:37:44.189Z,20.03
2016-06-15T08:38:44.160Z,19.99
2016-06-15T08:39:44.179Z,20
2016-06-15T08:40:44.323Z,20.1
2016-06-15T08:41:44.123Z,20.11
2016-06-15T08:42:44.095Z,20.26
2016-06-15T08:43:44.082Z,20.11
2016-06-15T08:44:44.069Z,20.14
2016-06-15T08:45:44.073Z,20.03
2016-06-15T08:46:44.060Z,20.06
2016-06-15T08:47:44.048Z,19.99
2016-06-15T08:48:44.019Z,19.89
2016-06-15T08:49:43.866Z,20.06
2016-06-15T08:50:44.604Z,19.86
2016-06-15T08:51:43.840Z,19.88
2016-06-15T08:52:44.485Z,19.96
2016-06-15T08:53:43.956Z,19.73
2016-06-15T08:54:43.929Z,19.67
2016-06-15T08:55:44.369Z,19.71
2016-06-15T08:56:43.903Z,19.81
2016-06-15T08:57:43.906Z,19.95
2016-06-15T08:58:43.894Z,19.85
2016-06-15T08:59:43.881Z,19.7
2016-06-15T09:00:43.868Z,19.86
2016-06-15T09:01:43.826Z,19.91
2016-06-15T09:02:43.829Z,19.79
2016-06-15T09:03:43.816Z,19.52
2016-06-15T09:04:43.788Z,19.41
2016-06-15T09:05:43.775Z,19.63
2016-06-15T09:06:45.075Z,19.74
2016-06-15T09:07:43.750Z,19.48
2016-06-15T09:08:43.738Z,19.62
2016-06-15T09:09:43.709Z,19.69
2016-06-15T09:10:43.696Z,19.64
2016-06-15T09:11:43.700Z,19.76
2016-06-15T09:12:43.778Z,19.95
2016-06-15T09:13:43.686Z,19.85
2016-06-15T09:14:43.655Z,19.91
2016-06-15T09:16:07.690Z,20.03
2016-06-15T09:16:43.752Z,20.11
2016-06-15T09:17:43.599Z,20.13
2016-06-15T09:18:43.603Z,20.09
2016-06-15T09:19:43.621Z,20.25
2016-06-15T09:20:43.561Z,20.19
2016-06-15T09:21:43.565Z,20.19
2016-06-15T09:22:43.552Z,20.14
2016-06-15T09:23:43.493Z,20.07
2016-06-15T09:24:43.495Z,20.22
2016-06-15T09:25:43.546Z,20.37
2016-06-15T09:26:43.329Z,20.41
2016-06-15T09:27:43.724Z,20.59
2016-06-15T09:28:43.446Z,20.56
2016-06-15T09:29:43.427Z,20.5
2016-06-15T09:30:43.415Z,20.7
2016-06-15T09:31:43.808Z,20.52
2016-06-15T09:32:43.406Z,20.43
2016-06-15T09:33:43.378Z,20.87
2016-06-15T09:34:43.395Z,21.03
2016-06-15T09:35:43.837Z,20.92
2016-06-15T09:36:43.324Z,21
2016-06-15T09:37:43.607Z,20.85
2016-06-15T09:38:43.360Z,20.65
2016-06-15T09:39:43.348Z,20.82
2016-06-15T09:40:43.117Z,20.69
2016-06-15T09:41:43.277Z,20.58
2016-06-15T09:42:43.248Z,20.26
2016-06-15T09:43:43.236Z,20.11
2016-06-15T09:44:43.239Z,20.25
2016-06-15T09:45:43.212Z,20.29
2016-06-15T09:46:43.214Z,20.44
2016-06-15T09:47:43.045Z,19.86
2016-06-15T09:48:43.188Z,19.88
2016-06-15T09:49:43.161Z,19.79
2016-06-15T09:50:43.147Z,19.74
2016-06-15T09:51:44.526Z,20.02
2016-06-15T09:52:43.139Z,20.03
2016-06-15T09:53:43.892Z,20.16
2016-06-15T09:54:43.409Z,20.26
2016-06-15T09:55:43.085Z,20.24
2016-06-15T09:56:43.041Z,20.06
2016-06-15T09:57:43.044Z,20.09
2016-06-15T09:58:43.032Z,20.22
2016-06-15T09:59:43.161Z,20.14
2016-06-15T10:00:43.116Z,20.1
2016-06-15T10:01:43.103Z,20.37
2016-06-15T10:02:42.981Z,20.4
2016-06-15T10:03:42.984Z,20.43
2016-06-15T10:04:42.834Z,20.72
2016-06-15T10:05:42.987Z,20.87
2016-06-15T10:06:43.139Z,20.93
2016-06-15T10:07:43.246Z,21.12
2016-06-15T10:08:43.163Z,21.07
2016-06-15T10:09:43.084Z,20.87
2016-06-15T10:10:43.087Z,20.51
2016-06-15T10:11:43.103Z,20.65
2016-06-15T10:12:43.277Z,20.59
2016-06-15T10:13:42.967Z,20.69
2016-06-15T10:14:43.074Z,20.32
2016-06-15T10:15:43.050Z,20.4
2016-06-15T10:16:43.074Z,20.6
2016-06-15T10:17:53.950Z,20.4
2016-06-15T10:18:43.028Z,20.29
2016-06-15T10:19:42.895Z,20.55
2016-06-15T10:20:43.025Z,20.72
2016-06-15T10:21:43.030Z,20.95
2016-06-15T10:22:43.613Z,20.78
2016-06-15T10:23:42.993Z,20.96
2016-06-15T10:24:42.841Z,21.24
2016-06-15T10:25:42.970Z,21.5
2016-06-15T10:26:42.958Z,21.4
2016-06-15T10:27:42.960Z,21.46
2016-06-15T10:28:42.917Z,21.32
2016-06-15T10:29:42.906Z,21.27
2016-06-15T10:30:42.909Z,21.39
2016-06-15T10:31:43.146Z,21.4
2016-06-15T10:32:43.041Z,21.73
2016-06-15T10:33:42.981Z,21.72
2016-06-15T10:34:42.860Z,21.58
2016-06-15T10:35:47.113Z,21.45
2016-06-15T10:36:52.054Z,21.46
2016-06-15T10:37:58.528Z,21.25
2016-06-15T10:38:53.841Z,21.42
2016-06-15T10:39:58.801Z,21.66
2016-06-15T10:40:57.207Z,21.95
2016-06-15T10:41:51.523Z,21.98
2016-06-15T10:42:57.651Z,22.04
2016-06-15T10:43:42.747Z,22.41
2016-06-15T10:44:42.719Z,22.54
2016-06-15T10:45:51.378Z,22.04
2016-06-15T10:47:16.150Z,21.42
2016-06-15T10:48:09.981Z,21.48
2016-06-15T10:49:20.438Z,21.96
2016-06-15T10:50:24.051Z,22.04
2016-06-15T10:51:32.569Z,21.6
2016-06-15T10:53:50.169Z,22.2
2016-06-15T10:55:50.566Z,21.33
2016-06-15T10:56:03.659Z,21.4
2016-06-15T10:57:03.694Z,21.06
2016-06-15T10:58:03.681Z,21.03
2016-06-15T10:59:03.622Z,21.12
2016-06-15T11:00:03.626Z,21.22
2016-06-15T11:01:03.613Z,21.29
2016-06-15T11:02:03.585Z,21.21
2016-06-15T11:03:03.650Z,21.03
2016-06-15T11:04:03.575Z,20.82
2016-06-15T11:05:03.562Z,20.88
2016-06-15T11:06:03.581Z,20.81
2016-06-15T11:07:03.366Z,20.52
2016-06-15T11:08:03.900Z,20.7
2016-06-15T11:09:03.496Z,20.52
2016-06-15T11:10:03.578Z,20.84
2016-06-15T11:11:03.487Z,20.6
2016-06-15T11:12:03.506Z,21.15
2016-06-15T11:13:03.369Z,21.51
2016-06-15T11:14:03.434Z,21.91
2016-06-15T11:15:03.436Z,21.98
2016-06-15T11:16:03.409Z,22.2
2016-06-15T11:17:03.474Z,22.17
2016-06-15T11:18:03.227Z,22.06
2016-06-15T11:19:03.372Z,22.22
2016-06-15T11:20:03.374Z,22.43
2016-06-15T11:21:03.347Z,22.22
2016-06-15T11:22:03.334Z,22.2
2016-06-15T11:23:03.649Z,22.35
2016-06-15T11:24:03.324Z,22.5
2016-06-15T11:25:03.328Z,22.76
2016-06-15T11:26:03.158Z,22.53
2016-06-15T11:27:04.365Z,21.95
2016-06-15T11:28:03.540Z,22.08
2016-06-15T11:29:03.354Z,22.13
2016-06-15T11:30:03.093Z,22.39
2016-06-15T11:31:03.252Z,22.29
2016-06-15T11:32:03.224Z,22.59
2016-06-15T11:33:03.211Z,22.26
2016-06-15T11:34:03.183Z,22.43
2016-06-15T11:35:03.264Z,23.2
2016-06-15T11:36:03.315Z,23.44
2016-06-15T11:37:03.005Z,23.1
2016-06-15T11:38:03.726Z,23.12
2016-06-15T11:39:03.135Z,23.55
2016-06-15T11:40:03.138Z,23.62
2016-06-15T11:41:03.126Z,24.03
2016-06-15T11:42:03.005Z,23.95
2016-06-15T11:43:03.086Z,24.35
2016-06-15T11:44:03.089Z,24.32
2016-06-15T11:45:03.076Z,24.39
2016-06-15T11:46:03.095Z,24.14
2016-06-15T11:47:03.067Z,23.21
2016-06-15T11:48:03.054Z,23.93
2016-06-15T11:49:03.041Z,24.48
2016-06-15T11:50:03.061Z,24.53
2016-06-15T11:51:03.032Z,24.93
2016-06-15T11:52:02.926Z,25.69
2016-06-15T11:53:03.101Z,24.65
2016-06-15T11:54:03.042Z,24.43
2016-06-15T11:55:03.045Z,24.18
2016-06-15T11:56:03.015Z,24.3
2016-06-15T11:57:03.004Z,24.53
2016-06-15T11:58:03.007Z,24.61
2016-06-15T11:59:02.994Z,24.01
2016-06-15T12:00:03.076Z,23.09
2016-06-15T12:01:02.984Z,23.32
2016-06-15T12:02:02.988Z,24.3
2016-06-15T12:03:02.960Z,24.47
2016-06-15T12:04:02.963Z,25.06
2016-06-15T12:05:02.951Z,25.07
2016-06-15T12:06:02.968Z,24.8
2016-06-15T12:07:02.941Z,25.23
2016-06-15T12:08:02.990Z,24.28
2016-06-15T12:09:02.931Z,23.88
2016-06-15T12:10:03.012Z,24.24
2016-06-15T12:11:02.922Z,24.68
2016-06-15T12:12:02.940Z,24.85
2016-06-15T12:13:02.896Z,24.76
2016-06-15T12:14:02.915Z,24.69
2016-06-15T12:15:02.888Z,24.8
2016-06-15T12:16:02.891Z,24.92
2016-06-15T12:17:02.721Z,25.22
2016-06-15T12:18:02.880Z,25.25
2016-06-15T12:19:02.869Z,24.77
2016-06-15T12:20:02.872Z,25.33
2016-06-15T12:21:02.859Z,25.4
2016-06-15T12:22:02.706Z,25.75
2016-06-15T12:23:03.208Z,26.06
2016-06-15T12:24:02.915Z,26.09
2016-06-15T12:25:02.949Z,25.16
2016-06-15T12:26:02.827Z,26.07
2016-06-15T12:27:02.830Z,25.98
2016-06-15T12:28:02.927Z,25.68
2016-06-15T12:29:02.820Z,25.46
2016-06-15T12:30:02.809Z,25.69
2016-06-15T12:31:02.812Z,26.6
2016-06-15T12:32:02.815Z,26.44
2016-06-15T12:33:02.801Z,25.73
2016-06-15T12:34:02.804Z,25.93
2016-06-15T12:35:02.793Z,26.37
2016-06-15T12:36:02.811Z,26.48
2016-06-15T12:37:02.954Z,25.9
2016-06-15T12:38:02.864Z,25.55
2016-06-15T12:39:02.789Z,26.21
2016-06-15T12:40:02.823Z,26.25
2016-06-15T12:41:02.843Z,25.62
2016-06-15T12:42:02.892Z,25.36
2016-06-15T12:43:02.785Z,25.53
2016-06-15T12:44:02.757Z,25.31
2016-06-15T12:45:02.761Z,24.86
2016-06-15T12:46:02.764Z,25.7
2016-06-15T12:47:02.814Z,25.47
2016-06-15T12:48:02.583Z,25.03
2016-06-15T12:49:02.725Z,25.43
2016-06-15T12:50:02.839Z,25.96
2016-06-15T12:51:02.732Z,26.09
2016-06-15T12:52:02.720Z,25.59
2016-06-15T12:53:02.723Z,26.1
2016-06-15T12:54:02.726Z,25.41
2016-06-15T12:55:02.698Z,25.83
2016-06-15T12:56:02.700Z,26.58
2016-06-15T12:57:02.703Z,26.8
2016-06-15T12:58:02.534Z,26.93